Time;durP1;ratioP1;P1;durP2;ratioP2;P2;SDS_P1;SDS_P2;PMS_P1;PMS_P2;Temp;Humidity;BMP_temperature;BMP_pressure;BME280_temperature;BME280_humidity;BME280_pressure;Samples;Min_cycle;Max_cycle;Signal;HPM_P1;HPM_P2
2022/07/25 00:01:42;;;;;;;4.88;1.80;;;;;;;20.09;64.12;99327.31;5071826;28;20041;-45
2022/07/25 00:04:10;;;;;;;6.65;2.25;;;;;;;20.06;64.45;99329.28;5082023;28;20053;-44
2022/07/25 00:06:38;;;;;;;6.32;1.92;;;;;;;20.01;64.34;99326.88;5068250;28;20051;-45
2022/07/25 00:09:05;;;;;;;5.78;1.60;;;;;;;19.98;64.26;99320.00;5066265;28;20044;-47
2022/07/25 00:11:32;;;;;;;5.03;1.95;;;;;;;19.94;64.12;99331.59;5069264;28;20424;-47
2022/07/25 00:13:59;;;;;;;6.43;1.85;;;;;;;19.92;64.54;99322.94;5068161;28;20056;-46
2022/07/25 00:16:26;;;;;;;9.48;1.85;;;;;;;19.89;64.27;99323.09;5070508;28;20056;-47
2022/07/25 00:18:54;;;;;;;7.13;2.00;;;;;;;19.88;64.18;99321.41;5068656;28;20059;-45
2022/07/25 00:21:23;;;;;;;7.38;1.98;;;;;;;19.86;63.90;99323.28;5073246;28;20047;-50
2022/07/25 00:23:51;;;;;;;6.20;1.58;;;;;;;19.81;64.03;99320.03;5066908;28;20059;-49
2022/07/25 00:26:19;;;;;;;9.38;1.80;;;;;;;19.78;64.21;99311.41;5070426;28;20056;-46
2022/07/25 00:28:48;;;;;;;7.53;1.77;;;;;;;19.75;64.46;99315.94;5065450;28;20547;-47
2022/07/25 00:31:16;;;;;;;6.38;1.55;;;;;;;19.71;63.92;99310.03;5067777;28;20139;-44
2022/07/25 00:33:44;;;;;;;7.18;2.65;;;;;;;19.65;64.35;99294.56;5068477;28;20056;-48
2022/07/25 00:36:13;;;;;;;5.38;1.70;;;;;;;19.62;64.56;99294.75;5066567;28;20049;-47
2022/07/25 00:38:40;;;;;;;3.97;1.70;;;;;;;19.59;64.66;99294.91;5067811;28;20075;-44
2022/07/25 00:41:07;;;;;;;5.88;1.67;;;;;;;19.57;64.49;99288.88;5069623;28;20059;-47
2022/07/25 00:43:34;;;;;;;6.38;1.55;;;;;;;19.54;64.22;99287.25;5063861;28;20053;-48
2022/07/25 00:46:01;;;;;;;8.20;1.73;;;;;;;19.50;64.25;99290.97;5065746;28;20058;-44
2022/07/25 00:48:28;;;;;;;6.20;1.70;;;;;;;19.43;64.59;99290.47;5073737;28;20075;-46
2022/07/25 00:50:55;;;;;;;4.20;1.67;;;;;;;19.39;65.33;99283.69;5070499;28;20071;-48
2022/07/25 00:53:23;;;;;;;4.45;1.52;;;;;;;19.38;64.95;99288.06;5066870;28;20055;-44
2022/07/25 00:55:50;;;;;;;6.22;1.50;;;;;;;19.35;65.26;99287.38;5076016;28;20497;-44
2022/07/25 00:58:17;;;;;;;5.00;2.30;;;;;;;19.34;65.20;99285.66;5080631;28;20798;-44
2022/07/25 01:00:44;;;;;;;7.07;1.98;;;;;;;19.33;65.22;99269.09;5066694;28;20052;-46
2022/07/25 01:03:11;;;;;;;7.75;2.10;;;;;;;19.30;65.00;99273.63;5074584;28;20048;-47
2022/07/25 01:05:38;;;;;;;4.50;1.58;;;;;;;19.29;65.16;99277.19;5070196;28;20056;-46
2022/07/25 01:08:05;;;;;;;6.13;2.28;;;;;;;19.26;64.77;99263.28;5061806;28;20710;-49
2022/07/25 01:10:32;;;;;;;8.20;1.70;;;;;;;19.25;64.96;99271.25;5065052;28;20102;-47
2022/07/25 01:13:00;;;;;;;5.55;1.70;;;;;;;19.21;65.17;99270.56;5062158;28;20565;-47
2022/07/25 01:15:27;;;;;;;7.43;1.92;;;;;;;19.21;65.04;99275.81;5069276;28;20109;-45
2022/07/25 01:17:53;;;;;;;8.55;1.75;;;;;;;19.16;65.35;99272.56;5085078;28;20040;-42
2022/07/25 01:20:23;;;;;;;6.03;2.00;;;;;;;19.14;64.94;99274.41;5069702;28;20137;-43
2022/07/25 01:22:51;;;;;;;5.90;1.70;;;;;;;19.12;65.04;99277.13;5087300;28;20140;-48
2022/07/25 01:25:19;;;;;;;5.88;1.60;;;;;;;19.10;64.78;99273.75;5069329;28;20396;-45
2022/07/25 01:27:47;;;;;;;8.48;2.10;;;;;;;19.10;64.96;99278.13;5071486;28;20049;-45
2022/07/25 01:30:21;;;;;;;4.80;1.92;;;;;;;19.05;64.98;99269.63;5066478;28;20072;-45
2022/07/25 01:32:48;;;;;;;7.72;1.80;;;;;;;19.02;65.04;99265.38;5064026;28;20049;-47
2022/07/25 01:35:14;;;;;;;7.70;1.80;;;;;;;18.98;64.82;99275.16;5068404;28;20558;-46
2022/07/25 01:37:41;;;;;;;6.82;2.13;;;;;;;18.96;65.60;99276.16;5071849;28;20037;-45
2022/07/25 01:40:12;;;;;;;9.63;2.25;;;;;;;18.95;65.53;99280.56;5069910;28;20042;-49
2022/07/25 01:42:40;;;;;;;4.32;1.38;;;;;;;18.94;65.44;99284.13;5074483;28;20051;-44
2022/07/25 01:45:07;;;;;;;6.20;1.77;;;;;;;18.97;65.71;99283.97;5064869;28;20091;-43
2022/07/25 01:47:34;;;;;;;6.32;1.60;;;;;;;18.99;65.44;99284.72;5066389;28;20571;-44
2022/07/25 01:50:00;;;;;;;4.85;1.90;;;;;;;19.02;65.69;99284.56;5072825;28;20472;-45
2022/07/25 01:52:27;;;;;;;7.10;1.50;;;;;;;19.01;65.87;99282.88;5082762;28;20533;-45
2022/07/25 01:54:54;;;;;;;8.80;1.50;;;;;;;19.04;65.68;99281.88;5070064;28;20071;-44
2022/07/25 01:57:22;;;;;;;8.65;2.17;;;;;;;19.05;66.13;99275.69;5063094;28;20045;-44
2022/07/25 01:59:55;;;;;;;4.93;1.42;;;;;;;19.08;65.70;99286.06;5048220;28;20067;-45
2022/07/25 02:02:22;;;;;;;4.80;1.98;;;;;;;19.11;65.82;99279.81;5068673;28;20044;-44
2022/07/25 02:04:48;;;;;;;4.82;1.77;;;;;;;19.12;66.21;99277.13;5066570;28;20529;-43
2022/07/25 02:07:15;;;;;;;5.82;1.40;;;;;;;19.14;65.73;99284.91;5078529;28;20044;-46
2022/07/25 02:09:42;;;;;;;10.95;1.80;;;;;;;19.17;66.47;99276.03;5074754;28;20075;-44
2022/07/25 02:12:08;;;;;;;5.28;1.63;;;;;;;19.17;65.65;99274.25;5074354;28;20052;-44
2022/07/25 02:14:35;;;;;;;4.13;1.80;;;;;;;19.18;65.69;99275.13;5062380;28;20539;-46
2022/07/25 02:17:02;;;;;;;7.20;1.70;;;;;;;19.18;66.21;99275.13;5082631;28;20048;-45
2022/07/25 02:19:29;;;;;;;6.78;2.45;;;;;;;19.16;65.75;99280.44;5075485;28;20653;-47
2022/07/25 02:21:56;;;;;;;6.22;1.48;;;;;;;19.14;65.80;99284.91;5074830;28;20106;-45
2022/07/25 02:24:22;;;;;;;7.00;1.92;;;;;;;19.14;65.88;99277.03;5072833;28;20101;-44
2022/07/25 02:26:49;;;;;;;3.42;1.58;;;;;;;19.14;66.18;99274.41;5071355;28;20492;-47
2022/07/25 02:29:16;;;;;;;9.13;1.77;;;;;;;19.13;65.62;99275.34;5072854;28;20094;-46
2022/07/25 02:31:47;;;;;;;5.50;1.50;;;;;;;19.15;65.77;99276.09;5072750;28;20565;-43
2022/07/25 02:34:14;;;;;;;5.22;1.42;;;;;;;19.11;65.56;99266.69;5071002;28;20071;-45
2022/07/25 02:36:41;;;;;;;5.35;1.70;;;;;;;19.09;65.22;99264.19;5073366;28;20048;-46
2022/07/25 02:39:07;;;;;;;5.25;1.70;;;;;;;19.08;65.35;99264.25;5070329;28;20074;-47
2022/07/25 02:41:34;;;;;;;5.65;1.45;;;;;;;19.09;65.62;99263.31;5066769;28;20523;-46
2022/07/25 02:44:00;;;;;;;5.43;1.60;;;;;;;19.06;65.67;99256.44;5075652;28;20055;-47
2022/07/25 02:46:27;;;;;;;5.05;1.65;;;;;;;19.05;65.72;99259.13;5061141;28;20057;-44
2022/07/25 02:48:54;;;;;;;4.20;1.70;;;;;;;19.04;65.65;99252.19;5072352;28;20054;-44
2022/07/25 02:51:21;;;;;;;5.75;1.33;;;;;;;19.00;65.67;99257.56;5068221;28;20048;-43
2022/07/25 02:53:48;;;;;;;4.72;1.75;;;;;;;18.98;65.75;99253.34;5070553;28;20048;-44
2022/07/25 02:56:24;;;;;;;;;;;;;;;18.78;65.70;99256.94;5067159;28;20097;-44
2022/07/25 02:58:51;;;;;;;5.07;1.55;;;;;;;18.90;65.77;99251.09;5063038;28;19928;-44
2022/07/25 03:01:18;;;;;;;9.05;1.48;;;;;;;18.89;66.40;99249.41;5065704;28;20052;-43
2022/07/25 03:03:44;;;;;;;7.13;2.10;;;;;;;18.88;65.71;99248.53;5073543;28;20051;-45
2022/07/25 03:06:11;;;;;;;5.20;1.50;;;;;;;18.88;66.04;99245.09;5075219;28;20651;-45
2022/07/25 03:08:38;;;;;;;5.15;1.25;;;;;;;18.87;66.13;99240.75;5068031;28;20067;-45
2022/07/25 03:11:04;;;;;;;4.30;1.20;;;;;;;18.84;65.88;99231.25;5070079;28;20056;-44
2022/07/25 03:13:32;;;;;;;5.90;1.25;;;;;;;18.82;65.74;99233.13;5063188;28;20051;-45
2022/07/25 03:15:59;;;;;;;6.18;1.20;;;;;;;18.84;65.87;99222.53;5063237;28;20473;-44
2022/07/25 03:18:25;;;;;;;4.22;1.17;;;;;;;18.81;65.69;99225.34;5065355;28;20056;-45
2022/07/25 03:20:52;;;;;;;4.07;1.40;;;;;;;18.80;65.38;99221.84;5063732;28;20056;-45
2022/07/25 03:23:19;;;;;;;5.50;1.58;;;;;;;18.80;65.39;99223.59;5072210;28;20052;-45
2022/07/25 03:25:45;;;;;;;6.05;1.00;;;;;;;18.78;65.80;99220.22;5075454;28;20051;-45
2022/07/25 03:28:12;;;;;;;4.90;1.10;;;;;;;18.75;65.42;99222.06;5073309;28;20655;-44
2022/07/25 03:30:39;;;;;;;5.72;1.30;;;;;;;18.75;65.41;99221.25;5066269;28;20177;-46
2022/07/25 03:33:05;;;;;;;3.75;1.35;;;;;;;18.75;65.61;99216.81;5067935;28;20040;-49
2022/07/25 03:35:32;;;;;;;5.15;1.17;;;;;;;18.74;65.44;99209.88;5069157;28;20067;-48
2022/07/25 03:38:00;;;;;;;5.57;1.42;;;;;;;18.73;65.42;99223.94;5071526;28;20144;-44
2022/07/25 03:40:27;;;;;;;4.15;1.00;;;;;;;18.74;65.17;99217.75;5064275;28;20101;-48
2022/07/25 03:42:54;;;;;;;3.55;1.02;;;;;;;18.74;64.94;99214.28;5084302;28;20070;-47
2022/07/25 03:45:20;;;;;;;7.60;1.73;;;;;;;18.73;65.19;99212.59;5068396;28;20053;-45
2022/07/25 03:47:47;;;;;;;6.43;1.23;;;;;;;18.72;65.26;99216.13;5060080;28;20052;-44
2022/07/25 03:50:14;;;;;;;3.75;1.08;;;;;;;18.71;65.37;99210.03;5070731;28;20056;-48
2022/07/25 03:52:40;;;;;;;8.05;1.63;;;;;;;18.71;64.96;99204.78;5064753;28;20044;-48
2022/07/25 03:55:09;;;;;;;5.35;1.20;;;;;;;18.71;64.70;99199.53;5064965;28;20768;-47
2022/07/25 03:57:37;;;;;;;5.28;0.90;;;;;;;18.67;65.25;99198.00;5069865;28;20094;-47
2022/07/25 04:00:06;;;;;;;4.63;1.35;;;;;;;18.62;65.27;99194.78;5058158;28;20667;-45
2022/07/25 04:02:33;;;;;;;3.38;0.90;;;;;;;18.58;65.44;99198.47;5085889;28;20063;-49
2022/07/25 04:05:00;;;;;;;4.35;0.75;;;;;;;18.54;65.11;99204.81;5071723;28;20056;-46
2022/07/25 04:07:26;;;;;;;3.90;1.10;;;;;;;18.50;65.03;99209.31;5075953;28;20092;-46
2022/07/25 04:09:53;;;;;;;4.30;0.98;;;;;;;18.45;65.04;99204.34;5061484;28;20044;-44
2022/07/25 04:12:20;;;;;;;4.60;1.00;;;;;;;18.43;64.88;99203.53;5062665;28;20082;-48
2022/07/25 04:14:46;;;;;;;4.10;1.02;;;;;;;18.43;65.23;99215.78;5062972;28;20101;-43
2022/07/25 04:17:13;;;;;;;5.10;1.10;;;;;;;18.44;65.52;99215.72;5073501;28;20059;-47
2022/07/25 04:19:40;;;;;;;5.18;1.17;;;;;;;18.46;65.85;99211.28;5064477;28;20124;-47
2022/07/25 04:22:07;;;;;;;6.03;1.30;;;;;;;18.46;65.67;99200.78;5070756;28;20052;-45
2022/07/25 04:24:33;;;;;;;4.35;1.00;;;;;;;18.50;64.92;99207.56;5066381;28;20041;-48
2022/07/25 04:27:00;;;;;;;2.70;1.10;;;;;;;18.53;65.67;99205.69;5065356;28;20107;-44
2022/07/25 04:29:27;;;;;;;5.90;1.65;;;;;;;18.55;65.01;99209.09;5066982;28;20265;-43
2022/07/25 04:31:54;;;;;;;5.97;1.00;;;;;;;18.55;65.46;99209.09;5071993;28;20051;-45
2022/07/25 04:34:21;;;;;;;3.50;1.00;;;;;;;18.57;65.65;99202.00;5073060;28;20044;-45
2022/07/25 04:36:47;;;;;;;5.60;1.83;;;;;;;18.58;64.94;99208.97;5072568;28;20060;-47
2022/07/25 04:39:14;;;;;;;4.80;0.98;;;;;;;18.56;65.07;99211.66;5069535;28;20101;-45
2022/07/25 04:41:41;;;;;;;6.72;1.25;;;;;;;18.56;65.49;99201.16;5064308;28;20040;-44
2022/07/25 04:44:07;;;;;;;4.18;1.40;;;;;;;18.56;65.72;99205.56;5067538;28;20044;-43
2022/07/25 04:46:35;;;;;;;4.90;0.90;;;;;;;18.56;65.72;99208.19;5062958;28;20067;-50
2022/07/25 04:49:01;;;;;;;4.65;0.95;;;;;;;18.55;65.34;99203.88;5072576;28;20129;-43
2022/07/25 04:51:28;;;;;;;4.18;0.93;;;;;;;18.55;65.41;99201.25;5070871;28;20059;-44
2022/07/25 04:53:55;;;;;;;5.05;1.30;;;;;;;18.54;64.88;99208.25;5070533;28;20048;-44
2022/07/25 04:56:21;;;;;;;6.95;1.63;;;;;;;18.55;65.53;99211.72;5064604;28;20048;-45
2022/07/25 04:58:48;;;;;;;4.30;0.90;;;;;;;18.56;65.57;99216.03;5066947;28;20052;-45
2022/07/25 05:01:15;;;;;;;4.70;1.17;;;;;;;18.57;65.20;99222.97;5061416;28;20044;-46
2022/07/25 05:03:42;;;;;;;6.78;1.60;;;;;;;18.58;65.26;99230.78;5075998;28;20070;-46
2022/07/25 05:06:16;;;;;;;5.85;1.10;;;;;;;18.58;64.83;99229.94;5056256;28;20068;-45
2022/07/25 05:08:43;;;;;;;5.32;1.17;;;;;;;18.60;65.30;99231.56;5058226;28;20066;-43
2022/07/25 05:11:09;;;;;;;6.10;1.08;;;;;;;18.62;65.08;99228.88;5065894;28;20040;-44
2022/07/25 05:13:36;;;;;;;7.45;1.25;;;;;;;18.62;64.93;99224.44;5067594;28;20491;-46
2022/07/25 05:16:03;;;;;;;4.15;1.05;;;;;;;18.64;65.62;99240.13;5066653;28;20048;-44
2022/07/25 05:18:30;;;;;;;4.70;1.20;;;;;;;18.67;64.69;99234.72;5071130;28;20068;-44
2022/07/25 05:20:57;;;;;;;4.93;0.80;;;;;;;18.68;65.09;99233.78;5064552;28;20159;-44
2022/07/25 05:23:24;;;;;;;3.72;1.13;;;;;;;18.69;65.27;99227.63;5074017;28;20105;-46
2022/07/25 05:25:50;;;;;;;4.07;1.00;;;;;;;18.72;64.66;99232.75;5074895;28;20666;-44
2022/07/25 05:28:17;;;;;;;5.53;1.20;;;;;;;18.75;65.32;99232.56;5068716;28;20048;-49
2022/07/25 05:30:44;;;;;;;3.00;1.13;;;;;;;18.78;64.90;99235.97;5058186;28;20060;-45
2022/07/25 05:33:10;;;;;;;3.47;0.70;;;;;;;18.79;64.92;99237.66;5071287;28;20047;-44
2022/07/25 05:35:37;;;;;;;4.45;0.98;;;;;;;18.79;64.41;99237.66;5066202;28;20052;-45
2022/07/25 05:38:04;;;;;;;7.63;0.93;;;;;;;18.83;64.71;99241.81;5068481;28;20063;-44
2022/07/25 05:40:30;;;;;;;2.83;1.10;;;;;;;18.86;64.23;99236.44;5073491;28;20048;-48
2022/07/25 05:42:57;;;;;;;3.05;0.93;;;;;;;18.87;64.70;99238.13;5068235;28;20376;-44
2022/07/25 05:45:29;;;;;;;6.20;0.77;;;;;;;18.91;64.69;99246.69;5068172;28;20055;-44
2022/07/25 05:47:56;;;;;;;3.15;0.75;;;;;;;18.92;64.58;99244.00;5065455;28;20079;-45
2022/07/25 05:50:23;;;;;;;4.53;0.95;;;;;;;18.92;64.31;99249.25;5079095;28;20090;-46
2022/07/25 05:52:49;;;;;;;2.75;0.63;;;;;;;18.91;64.06;99252.78;5080373;28;20052;-45
2022/07/25 05:55:16;;;;;;;3.92;0.95;;;;;;;18.96;63.84;99249.94;5073294;28;20051;-45
2022/07/25 05:57:43;;;;;;;3.67;1.05;;;;;;;19.07;64.72;99252.03;5075168;28;20504;-44
2022/07/25 06:00:10;;;;;;;2.92;0.65;;;;;;;19.24;64.90;99233.66;5068314;28;20044;-46
2022/07/25 06:02:37;;;;;;;3.45;0.68;;;;;;;19.41;65.12;99229.28;5064963;28;20106;-47
2022/07/25 06:05:04;;;;;;;3.13;0.70;;;;;;;19.63;64.80;99238.66;5073471;28;20044;-45
2022/07/25 06:07:31;;;;;;;2.70;0.32;;;;;;;19.78;64.07;99243.09;5066925;28;20098;-44
2022/07/25 06:09:57;;;;;;;3.45;0.70;;;;;;;19.92;63.46;99249.34;5067826;28;20041;-43
2022/07/25 06:12:24;;;;;;;5.18;0.60;;;;;;;19.98;63.35;99241.16;5059734;28;20114;-43
2022/07/25 06:14:51;;;;;;;3.75;1.00;;;;;;;20.00;62.56;99246.34;5064544;28;20052;-44
2022/07/25 06:17:17;;;;;;;3.35;0.68;;;;;;;19.98;63.16;99246.41;5075041;28;20048;-44
2022/07/25 06:19:44;;;;;;;2.45;0.50;;;;;;;19.94;62.92;99250.13;5074655;28;20040;-46
2022/07/25 06:22:12;;;;;;;1.83;0.47;;;;;;;19.92;62.43;99249.34;5071511;28;20106;-46
2022/07/25 06:24:40;;;;;;;2.90;0.43;;;;;;;19.92;62.31;99254.63;5066460;28;20048;-43
2022/07/25 06:27:07;;;;;;;3.30;0.70;;;;;;;19.92;62.67;99259.88;5085965;28;20044;-45
2022/07/25 06:29:34;;;;;;;3.00;0.68;;;;;;;19.92;62.58;99259.88;5068749;28;20052;-45
2022/07/25 06:32:01;;;;;;;4.28;0.90;;;;;;;19.95;62.87;99249.19;5077586;28;20044;-45
2022/07/25 06:34:28;;;;;;;1.38;0.63;;;;;;;20.11;62.52;99248.38;5055960;28;20206;-45
2022/07/25 06:36:56;;;;;;;2.35;0.50;;;;;;;20.17;62.18;99253.31;5068778;28;20040;-44
2022/07/25 06:39:24;;;;;;;2.25;0.35;;;;;;;20.17;62.28;99261.19;5075577;28;20068;-46
2022/07/25 06:41:50;;;;;;;4.80;0.52;;;;;;;20.15;61.93;99257.78;5072474;28;20052;-44
2022/07/25 06:44:17;;;;;;;2.40;0.43;;;;;;;20.19;62.02;99261.94;5069968;28;20093;-47
2022/07/25 06:46:44;;;;;;;1.27;0.40;;;;;;;20.21;62.05;99249.56;5063405;28;20052;-44
2022/07/25 06:49:10;;;;;;;2.92;0.60;;;;;;;20.38;61.50;99251.25;5070482;28;20053;-44
2022/07/25 06:51:37;;;;;;;1.23;0.40;;;;;;;20.53;61.42;99254.78;5057545;28;20053;-44
2022/07/25 06:54:04;;;;;;;4.88;0.80;;;;;;;20.61;61.38;99253.50;5075138;28;20043;-48
2022/07/25 06:56:31;;;;;;;3.97;0.52;;;;;;;20.71;61.03;99249.41;5069797;28;20059;-45
2022/07/25 06:58:59;;;;;;;4.00;0.57;;;;;;;20.80;60.66;99253.28;5071679;28;20384;-46
2022/07/25 07:01:26;;;;;;;6.43;0.90;;;;;;;20.99;60.60;99258.34;5071931;28;20040;-44
2022/07/25 07:03:53;;;;;;;3.38;0.52;;;;;;;21.09;59.95;99255.16;5062801;28;20151;-46
2022/07/25 07:06:20;;;;;;;3.00;1.02;;;;;;;21.10;59.93;99256.88;5063591;28;20048;-45
2022/07/25 07:08:46;;;;;;;2.70;0.40;;;;;;;21.16;60.37;99261.75;5062831;28;20048;-45
2022/07/25 07:11:14;;;;;;;2.40;0.60;;;;;;;21.16;59.23;99259.97;5069631;28;20036;-47
2022/07/25 07:13:41;;;;;;;1.40;0.45;;;;;;;21.11;59.79;99271.72;5061017;28;20056;-47
2022/07/25 07:16:07;;;;;;;2.55;0.82;;;;;;;21.05;59.44;99265.88;5062714;28;20047;-46
2022/07/25 07:18:34;;;;;;;3.75;0.60;;;;;;;21.00;59.24;99273.19;5066274;28;20064;-46
2022/07/25 07:21:02;;;;;;;1.92;0.90;;;;;;;20.98;59.65;99269.81;5082794;28;20044;-49
2022/07/25 07:23:29;;;;;;;1.70;0.60;;;;;;;20.92;59.57;99270.16;5077418;28;20138;-45
2022/07/25 07:25:58;;;;;;;1.48;0.80;;;;;;;20.87;59.46;99277.47;5079255;28;20044;-45
2022/07/25 07:28:24;;;;;;;4.45;0.68;;;;;;;;;;5081629;28;20048;-47
2022/07/25 07:30:51;;;;;;;2.42;0.60;;;;;;;20.76;59.80;99283.34;5073024;28;20064;-46
2022/07/25 07:33:37;;;;;;;1.63;0.65;;;;;;;20.71;59.56;99283.63;5063886;28;20052;-46
2022/07/25 07:36:04;;;;;;;2.20;0.80;;;;;;;20.69;59.57;99285.47;5060035;28;20063;-46
2022/07/25 07:38:31;;;;;;;2.75;0.50;;;;;;;20.67;59.40;99285.56;5057936;28;20048;-45
2022/07/25 07:40:57;;;;;;;3.58;0.50;;;;;;;20.62;59.30;99285.00;5065452;28;20036;-47
2022/07/25 07:43:24;;;;;;;3.70;0.80;;;;;;;20.58;59.50;99287.88;5060456;28;20043;-48
2022/07/25 07:45:59;;;;;;;3.15;0.73;;;;;;;20.54;59.68;99284.59;5055596;28;20040;-49
2022/07/25 07:48:28;;;;;;;2.78;0.60;;;;;;;20.52;59.45;99278.53;5062107;28;20057;-45
2022/07/25 07:50:55;;;;;;;2.78;0.63;;;;;;;20.52;59.45;99284.66;5062327;28;20052;-44
2022/07/25 07:55:42;;;;;;;1.88;0.57;;;;;;;20.55;59.73;99300.28;5060141;28;20193;-49
2022/07/25 07:56:08;;;;;;;1.60;0.60;;;;;;;20.59;59.59;99297.44;5060156;28;20044;-46
2022/07/25 07:58:35;;;;;;;3.40;0.50;;;;;;;20.61;59.28;99306.13;5062868;28;20057;-46
2022/07/25 08:01:02;;;;;;;2.58;0.60;;;;;;;20.62;59.33;99307.81;5060252;28;20735;-46
2022/07/25 08:03:28;;;;;;;4.95;0.90;;;;;;;20.66;59.58;99302.28;5060839;28;20372;-44
2022/07/25 08:05:55;;;;;;;3.80;1.50;;;;;;;20.72;59.21;99295.84;5066609;28;20112;-48
2022/07/25 08:08:22;;;;;;;2.65;0.70;;;;;;;20.78;59.11;99303.34;5080956;28;20113;-46
2022/07/25 08:10:57;;;;;;;4.43;1.10;;;;;;;20.83;59.17;99303.09;5063754;28;20059;-46
2022/07/25 08:13:28;;;;;;;1.50;0.73;;;;;;;20.88;58.78;99305.47;5060669;28;20131;-48
2022/07/25 08:15:57;;;;;;;1.77;0.80;;;;;;;20.92;58.73;99307.03;5063525;28;20099;-46
2022/07/25 08:18:28;;;;;;;0.95;0.30;;;;;;;20.95;58.37;99312.13;5065448;28;20037;-48
2022/07/25 08:20:55;;;;;;;2.08;0.60;;;;;;;20.96;58.62;99307.69;5067890;28;20059;-50
2022/07/25 08:23:24;;;;;;;1.67;0.40;;;;;;;20.96;58.69;99305.91;5075159;28;20108;-50
2022/07/25 08:25:50;;;;;;;1.25;0.80;;;;;;;20.97;57.92;99314.66;5071134;28;20048;-46
2022/07/25 08:28:17;;;;;;;2.38;0.95;;;;;;;20.95;57.95;99314.75;5068707;28;20484;-45
2022/07/25 08:30:44;;;;;;;2.55;0.30;;;;;;;20.98;58.52;99311.09;5065256;28;20068;-49
2022/07/25 08:33:14;;;;;;;1.45;0.73;;;;;;;21.04;58.32;99306.31;5062066;28;20052;-48
2022/07/25 08:35:48;;;;;;;2.88;0.60;;;;;;;21.05;58.01;99299.25;5060447;28;20098;-45
2022/07/25 08:38:15;;;;;;;1.63;0.45;;;;;;;21.10;58.54;99320.06;5062939;28;20044;-49
2022/07/25 08:40:41;;;;;;;2.25;0.40;;;;;;;21.11;57.74;99309.41;5073155;28;20059;-49
2022/07/25 08:43:11;;;;;;;1.88;0.40;;;;;;;21.16;58.16;99314.41;5070678;28;20078;-44
2022/07/25 08:45:44;;;;;;;1.85;0.50;;;;;;;21.21;58.08;99309.72;5080544;28;20479;-49
2022/07/25 08:48:10;;;;;;;0.85;0.45;;;;;;;21.30;57.70;99316.22;5068307;28;20055;-47
2022/07/25 08:50:38;;;;;;;2.03;0.50;;;;;;;21.39;57.73;99309.56;5069045;28;20039;-52
2022/07/25 08:53:05;;;;;;;2.03;0.30;;;;;;;21.46;57.59;99324.06;5064960;28;20051;-51
2022/07/25 08:55:51;;;;;;;2.00;0.40;;;;;;;21.56;57.27;99316.47;5072119;28;20056;-48
2022/07/25 08:58:18;;;;;;;0.93;0.50;;;;;;;21.67;57.20;99318.44;5071059;28;20102;-46
2022/07/25 09:00:46;;;;;;;2.22;0.60;;;;;;;21.74;57.29;99309.25;5079490;28;20423;-47
2022/07/25 09:03:13;;;;;;;1.25;0.65;;;;;;;21.89;56.82;99319.78;5072872;28;20048;-48
2022/07/25 09:05:40;;;;;;;4.53;0.47;;;;;;;22.03;57.10;99325.06;5063650;28;20121;-44
2022/07/25 09:08:10;;;;;;;4.10;0.68;;;;;;;22.21;56.41;99309.88;5067200;28;20048;-48
2022/07/25 09:10:39;;;;;;;1.50;1.02;;;;;;;22.40;56.38;99316.63;5071944;28;20048;-47
2022/07/25 09:13:12;;;;;;;0.95;0.60;;;;;;;22.64;56.40;99323.06;5073277;28;20073;-45
2022/07/25 09:18:35;;;;;;;4.85;2.85;;;;;;;23.06;54.76;99329.09;5023001;28;20776;-45
2022/07/25 09:21:02;;;;;;;2.33;0.52;;;;;;;23.27;54.60;99325.94;5021351;28;20061;-48
2022/07/25 09:23:33;;;;;;;4.63;0.68;;;;;;;23.55;54.24;99334.69;5020040;28;20054;-49
2022/07/25 09:31:18;;;;;;;3.28;0.47;;;;;;;24.59;52.60;99339.78;5023656;27;20410;-47
2022/07/25 09:33:53;;;;;;;1.35;0.30;;;;;;;24.92;51.68;99339.28;5021242;28;20046;-45
2022/07/25 09:36:19;;;;;;;1.13;0.38;;;;;;;25.09;51.42;99352.09;5013743;28;20046;-48
2022/07/25 09:39:04;;;;;;;1.58;0.52;;;;;;;25.21;50.65;99349.47;5021052;28;20548;-45
2022/07/25 09:41:35;;;;;;;0.70;0.55;;;;;;;25.42;49.88;99350.50;5017135;28;20050;-47
2022/07/25 09:44:03;;;;;;;1.58;0.45;;;;;;;25.73;50.10;99341.19;5014735;28;20053;-47
2022/07/25 09:46:31;;;;;;;0.88;0.30;;;;;;;25.91;49.65;99346.84;5020728;28;20050;-44
2022/07/25 09:48:59;;;;;;;0.52;0.30;;;;;;;25.98;49.23;99357.81;5021436;28;20148;-46
2022/07/25 09:51:26;;;;;;;0.80;0.40;;;;;;;26.13;48.78;99361.91;5019695;28;20046;-47
2022/07/25 09:53:52;;;;;;;1.85;0.50;;;;;;;26.27;48.15;99352.84;5022102;28;20493;-45
2022/07/25 09:56:19;;;;;;;0.50;0.20;;;;;;;26.22;47.26;99356.81;5021538;28;20058;-46
2022/07/25 09:58:46;;;;;;;2.53;0.25;;;;;;;26.28;48.22;99367.00;5023639;28;20052;-49
2022/07/25 10:01:20;;;;;;;1.13;0.20;;;;;;;26.50;47.45;99362.59;5022650;28;20524;-45
2022/07/25 10:03:51;;;;;;;1.63;0.57;;;;;;;26.60;47.49;99368.84;5018821;28;20052;-47
2022/07/25 10:08:56;;;;;;;1.50;0.90;;;;;;;26.92;47.01;99361.88;5079658;27;20393;-48
2022/07/25 10:11:25;;;;;;;1.08;0.40;;;;;;;27.04;45.81;99365.34;5027100;28;20049;-49
2022/07/25 10:13:53;;;;;;;1.85;0.68;;;;;;;27.23;46.45;99371.78;5026129;28;20128;-47
2022/07/25 10:16:22;;;;;;;1.77;0.30;;;;;;;27.29;45.13;99373.94;5063309;28;20054;-47
2022/07/25 10:21:26;;;;;;;2.22;1.42;;;;;;;27.04;44.88;99386.59;5024035;28;21125;-46
2022/07/25 10:26:39;;;;;;;1.60;0.57;;;;;;;26.64;45.29;99391.53;5073438;27;20402;-46
2022/07/25 10:29:10;;;;;;;2.47;0.60;;;;;;;26.44;44.88;99393.97;5039163;28;20041;-49
2022/07/25 10:31:44;;;;;;;1.88;0.40;;;;;;;26.30;46.12;99407.50;5070940;28;20037;-46
2022/07/25 10:34:28;;;;;;;1.88;0.40;;;;;;;25.99;45.51;99408.09;5039138;28;20052;-47
2022/07/25 10:36:56;;;;;;;1.17;0.30;;;;;;;25.79;46.00;99406.97;5039370;28;20045;-51
2022/07/25 10:39:23;;;;;;;2.60;0.40;;;;;;;25.61;46.04;99404.78;5039580;28;20057;-51
2022/07/25 10:41:54;;;;;;;0.88;0.40;;;;;;;25.58;46.73;99407.69;5039342;28;20057;-48
2022/07/25 10:44:21;;;;;;;1.75;0.60;;;;;;;25.63;46.73;99410.81;5036076;28;20041;-50
2022/07/25 10:46:49;;;;;;;2.08;0.47;;;;;;;25.73;46.72;99404.81;5035015;28;20061;-49
2022/07/25 10:49:19;;;;;;;1.42;0.63;;;;;;;25.86;46.56;99417.94;5036229;28;20049;-51
2022/07/25 10:51:59;;;;;;;3.88;0.80;;;;;;;25.86;45.62;99412.66;5033352;28;20127;-46
2022/07/25 10:54:31;;;;;;;;;;;;;;;25.73;46.39;99412.78;5035060;28;20401;-48
2022/07/25 10:56:58;;;;;;;1.25;0.50;;;;;;;25.86;46.28;99421.47;5038896;28;20391;-47
2022/07/25 11:02:05;;;;;;;0.52;0.30;;;;;;;26.17;46.66;99415.56;5047768;28;20945;-52
2022/07/25 11:04:32;;;;;;;1.40;0.30;;;;;;;26.37;45.69;99416.66;5024314;28;20045;-46
2022/07/25 11:07:09;;;;;;;0.60;0.30;;;;;;;26.53;45.42;99411.00;5027908;28;20045;-47
2022/07/25 11:09:36;;;;;;;1.05;0.65;;;;;;;26.84;45.17;99412.97;5027386;28;20049;-46
2022/07/25 11:12:04;;;;;;;3.03;0.65;;;;;;;27.19;45.28;99413.72;5025806;28;20045;-51
2022/07/25 11:14:36;;;;;;;1.33;0.30;;;;;;;27.46;44.40;99423.03;5032613;28;20053;-49
2022/07/25 11:17:21;;;;;;;2.78;0.63;;;;;;;27.70;44.21;99420.09;5022292;28;20089;-52
2022/07/25 11:19:58;;;;;;;1.88;0.40;;;;;;;27.78;43.56;99415.94;5027005;28;20049;-48
2022/07/25 11:22:27;;;;;;;0.98;0.35;;;;;;;27.90;43.34;99417.59;5024840;28;20096;-47
2022/07/25 11:24:55;;;;;;;1.75;0.65;;;;;;;27.91;42.08;99416.59;5038722;28;20056;-47
2022/07/25 11:27:26;;;;;;;2.20;0.40;;;;;;;27.91;42.28;99416.59;5022561;28;20594;-50
2022/07/25 11:32:45;;;;;;;0.90;0.32;;;;;;;27.86;42.13;99413.47;5048949;28;20398;-46
2022/07/25 11:35:14;;;;;;;1.55;0.40;;;;;;;27.89;41.80;99415.88;4989819;28;20045;-46
2022/07/25 11:37:43;;;;;;;1.75;0.90;;;;;;;27.85;41.50;99417.13;5006759;28;20053;-52
2022/07/25 11:40:10;;;;;;;1.48;0.40;;;;;;;27.69;41.44;99423.75;5006311;28;20105;-47
2022/07/25 11:42:42;;;;;;;1.77;0.50;;;;;;;27.52;41.71;99424.31;5012272;28;20053;-48
2022/07/25 11:48:12;;;;;;;1.20;0.60;;;;;;;26.97;41.78;99428.78;5031918;27;20392;-51
2022/07/25 11:50:42;;;;;;;0.85;0.47;;;;;;;26.77;42.17;99438.34;4977604;28;20054;-48
2022/07/25 11:53:13;;;;;;;1.35;0.52;;;;;;;26.56;42.69;99447.06;4981596;28;20088;-50
2022/07/25 11:55:41;;;;;;;1.00;0.60;;;;;;;26.36;43.02;99452.16;4981358;28;20050;-48
2022/07/25 11:58:10;;;;;;;1.50;0.60;;;;;;;26.17;42.85;99448.25;5005565;28;20082;-47
2022/07/25 12:00:40;;;;;;;2.20;0.50;;;;;;;26.12;43.57;99453.09;5006735;28;20120;-52
2022/07/25 12:03:09;;;;;;;1.25;0.30;;;;;;;26.14;44.30;99456.44;4980147;28;20058;-48